__    __ __   
 .--.--|  |--|__|  |_ 
 |_   _|  _  |  |   _|
 |__.__|_____|__|____|

xBiT does not host or store any illegal contents on its servers. 
All this website does is present information that was collected across 
various sources over the internet and as such, cannot be held responsible
for any content.
Please donate us if you can, even small amount help us :)
Bitcoin SegWit         : 3A5HYJxzWoH2HuzDfYWC7n1v8uZdk17Nvs
Bitcoin NON-SegWit     : 13DFKACYDfqVqBve8cpW3TD2scSxTJmKg6
BitCoin Cash (BCH)     : 1Hso8iWho16zyMB6hEWaF8bDbScfE6r4wp
BitCoin Gold (BTG)     : Ac6Czyz5jpcZZLtVDGjxeGCVamvkuLx7Ze
Dash (DASH)            : XuuQTibhokJR7bxvwEfxH5wpQTpiH3vfHZ
LiteCoin (LTC)         : MFoiZomckzXHTxV833cV3FRydLL3wsqzdW
Zcash (ZEC)            : t1Ry1yKwcVtD5zeewSDPXV1Mcjhj9QvmY4M
Ethereum (ETH)         : 0x4be3e4fCdE80Ab43809c8c27bB3D1E9a3ea26900
Ethereum Classic (ETC) : 0x9E7F9C18646AB4ecA01a27451bFdb6F8d6588ff8

[ ]-[ API ]-[RELEASES: 19,293,344]-[FILES: 401,671,039]-[FILES-SIZE: ~21.11PB]

Shazam.2019
Wine.Countr
Pet.Sematar
Happy.Death
What.Men.Wa
Fighting.wi
The.Prodigy
Cold.Pursui
The.Wanderi
Arctic.2018
The.Lego.Mo
The.Bouncer
Someone.Gre
Daddy.Issue
[ #18616310 ]-[ [DL] 36d5e0a8cbe05f92d88938bbebff74466973101e ]-[ Speed.Kills.2018.720p.BRRip.XviD.AC3-XVID ]-[ 3.19GB ]-[ 2019-04-29 04:23:00 ]
[ #18585993 ]-[ [DL] ba08e85912eb135031f16ccef096adfda7bff262 ]-[ Speed.Kills.2018.1080p.BluRay.x264.DTS-HD.MA.5.1-FGT ]-[ 9.3GB ]-[ 2019-04-28 15:50:24 ]
[ #18205112 ]-[ [DL] 7fba1d57f04c201f0c5fac502cd4c2f74aa27076 ]-[ Speed.Kills.2018.720p.Bluray.Legendado.WWW.TPF.GRATIS ]-[ 997.47MB ]-[ 2019-04-20 23:20:56 ]
[ #18108793 ]-[ [DL] 0416f220a7f221d5ed16cd4a932aa16cacc8a77d ]-[ Speed.Kills.2018.1080p.BluRay.x264-SADPANDA[rarbg] ]-[ 7.66GB ]-[ 2019-04-19 07:00:01 ]
[ #17658365 ]-[ [DL] 79481c39815ef4189530eebf611526a989e90a29 ]-[ Speed.Kills.2018.1080p.AMZN.WEBRip.DDP5.1.x264-NTG ]-[ 3.93GB ]-[ 2019-04-10 18:27:05 ]
[ #17378379 ]-[ [DL] 6f9bdf27c1d7c509c78c6f1bb84ed75b901dfafb ]-[ [EX-TORRENTY.ORG] Speed.Kills.2018.PL.720p.WEB-DL.XviD.AC3-AZQ ]-[ 2.47GB ]-[ 2019-04-05 10:24:32 ]
[ #17184341 ]-[ [DL] 2298b02e8e4c9f5a6b88a92d441a2a1b91f51a92 ]-[ Speed.Kills.2018.PL.720p.BDRip.XviD.AC3-inTGrity ]-[ 1kB ]-[ 2019-03-29 22:30:06 ]
[ #17110570 ]-[ [DL] 65fe9979ec8fd03ebeec69c51353b7e5287c53d4 ]-[ Speed.Kills.2018.BRRip.XviD.AC3-EVO[EtMovies] ]-[ 1.37GB ]-[ 2019-03-27 20:54:31 ]
[ #17009851 ]-[ [DL] e79d189a185724972d7ef67b414a80e0d4893282 ]-[ Speed.Kills.2018.1080p.BDRip.AC3.X264-CMRG[TGx] ]-[ 5.62GB ]-[ 2019-03-24 21:03:40 ]
[ #16961091 ]-[ [DL] 6eca770ba2cc4195ddd7f4895e7ff8d8a4928799 ]-[ Speed.Kills.2018.1080p.BluRay.AVC.DTS-HD.MA.5.1-watchHD ]-[ 22.3GB ]-[ 2019-03-23 12:03:23 ]
[ #16906896 ]-[ [DL] 2298b02e8e4c9f5a6b88a92d441a2a1b91f51a92 ]-[ Speed.Kills.2018.PL.720p.BDRip.XviD.AC3-inTGrity ]-[ 2.84GB ]-[ 2019-03-21 22:45:56 ]
[ #16892951 ]-[ [DL] da8b7b02903dd146ae14ab2808758e58ed4e16f0 ]-[ Speed.kills.2018.1080p-dual-lat-cinecalidad.is.mp4 ]-[ 1kB ]-[ 2019-03-21 12:07:05 ]
[ #16863113 ]-[ [DL] 71b118538294c2dc46e362c49b4e07b53577c140 ]-[ Speed.Kills.2018.BRRip.XviD.AC3-EVO[EtMovies] ]-[ 1.37GB ]-[ 2019-03-20 14:34:11 ]
[ #16853803 ]-[ [DL] e44944751ea76bcde2d5977fea588d843a50364d ]-[ Speed.Kills.2018.German.AC3D.WEBSOUND.DL.1080p.BluRay.x264-SPECTRE ]-[ 1kB ]-[ 2019-03-20 07:37:05 ]
[ #16801141 ]-[ [DL] e44944751ea76bcde2d5977fea588d843a50364d ]-[ Speed.Kills.2018.German.AC3D.WEBSOUND.DL.1080p.BluRay.x264-SPECTRE ]-[ 7.85GB ]-[ 2019-03-18 20:11:45 ]
[ #16754880 ]-[ [DL] 4ead5618f7d8a776d77bd901c570804f791673db ]-[ Speed.Kills.2018.BRRip.XviD.AC3-XVID ]-[ 1.48GB ]-[ 2019-03-17 17:39:59 ]
[ #16187847 ]-[ [DL] 8233a04b010cc9eb28a4e1028ecd42e4e46ea7b2 ]-[ Speed.Kills.2018.lat.mkv ]-[ 1kB ]-[ 2019-03-05 22:10:05 ]
[ #15861506 ]-[ [DL] 45569bdcdf973fc23a0099f2d83752f61cc1592e ]-[ www.torrenting.com - Speed.Kills.2018.BDRip.AC3.X264-CMRG ]-[ 1.26GB ]-[ 2019-02-25 23:49:41 ]
[ #15838160 ]-[ [DL] c5f8e8f19f3b265f92d122e399df8b0a020bcb87 ]-[ Speed.Kills.2018.1080p.AMZN.WEB-DL.DDP5.1.H.264-NTG ]-[ 1kB ]-[ 2019-02-25 03:42:04 ]
[ #15829208 ]-[ [DL] eb0f7c86c3318228c4da35229aaf28e7cb8a5ee9 ]-[ Speed.Kills.2018.SweSub-EngSub.1080p.x264-Justiso ]-[ 1.92GB ]-[ 2019-02-24 17:28:51 ]
[ #15812821 ]-[ [DL] ea8ec1bd681e4c4d71a4460f741a3af3dca0bdbc ]-[ Speed.Kills.2018.iTALiAN.BDRiP.XviD-PRiME[MT].avi ]-[ 1kB ]-[ 2019-02-24 00:28:03 ]
[ #15796356 ]-[ [DL] 1b1c9ab0befbdbbfa5766503b136935c9f904e26 ]-[ Speed.Kills.2018.1080p.BluRay.x264.DTS-HD.MA.5.1-FGT (GrSubs muxed) ]-[ 9.3GB ]-[ 2019-02-23 08:43:55 ]
[ #15656215 ]-[ [DL] 90c757258b26a8fffc3a0ba6203e60cd75149861 ]-[ Speed.Kills.2018.PAL.DVDRo-uTsDVD ]-[ 3.76GB ]-[ 2019-02-19 09:23:15 ]
[ #15600648 ]-[ [DL] 90c757258b26a8fffc3a0ba6203e60cd75149861 ]-[ Speed.Kills.2018.PAL.DVDRo-uTsDVD ]-[ 1kB ]-[ 2019-02-17 22:35:05 ]
[ #15556507 ]-[ [DL] 55c5ea2574f122c40547f3a1c9bea409b69c1d76 ]-[ Speed.Kills.2018.BDRip.x264-VoMiT[rarbg] ]-[ 789.44MB ]-[ 2019-02-16 17:55:56 ]
[ #15482310 ]-[ [DL] 0eebd68cb69beb8ba9d40fe3955a4aef96504a7f ]-[ Speed.Kills.2018.BRRip.XviD.AC3-EVO ]-[ 1.37GB ]-[ 2019-02-13 12:47:18 ]
[ #15428661 ]-[ [DL] 52a1294d20bf9356842b3a78e744b766e71f77e5 ]-[ Speed.Kills.2018.BRRip.XviD.MP3-XVID ]-[ 1.3GB ]-[ 2019-02-10 19:44:11 ]
[ #15419478 ]-[ [DL] 52cd6994248195d363d605b756b2600f206355eb ]-[ [极速杀机 Speed.Kills][BluRay-720P.MKV][2.1GB][中文字幕] ]-[ 2.19GB ]-[ 2019-02-10 11:52:32 ]
[ #15382396 ]-[ [DL] 4fda9e1bd223f9572f8397233e3ff4658882d165 ]-[ Speed.Kills.2018.720p.BluRay.x264-SADPANDA[rarbg] ]-[ 4.37GB ]-[ 2019-02-07 12:45:59 ]
[ #15315804 ]-[ [DL] 35fc39d91eba3c1d3f8b9edd8566103f3bc192ac ]-[ Speed.Kills.2018.1080p.BluRay.x264-SADPANDA ]-[ 7.64GB ]-[ 2019-02-06 03:30:54 ]
[ #15218982 ]-[ [DL] 1b1c9ab0befbdbbfa5766503b136935c9f904e26 ]-[ Speed.Kills.2018.1080p.BluRay.x264.DTS-HD.MA.5.1-FGT (GrSubs muxed) ]-[ 1kB ]-[ 2019-02-02 05:11:03 ]
[ #15074733 ]-[ [DL] 0ec40c24ac13e8359169ab36ca0dbe0b23f86e67 ]-[ Speed.Kills.2018.720p.BluRay.x264-SADPANDA[EtHD] ]-[ 4.41GB ]-[ 2019-01-27 17:27:55 ]
[ #15054284 ]-[ [DL] 2988b6dda4940315125c632ef76243cdb7174e53 ]-[ Speed.Kills.2018.720p.BluRay.x264-SADPANDA ]-[ 4.36GB ]-[ 2019-01-27 09:06:14 ]
[ #14901885 ]-[ [DL] 07c9bf9306af6536611c9fbe37f8ea134cad54af ]-[ Speed.Kills.2018.COMPLETE.DVDR-JFKDVD ]-[ 1kB ]-[ 2019-01-24 03:04:04 ]
[ #14880639 ]-[ [DL] 11e461ab2744b65c34f2db97bb075dbd4f41cb61 ]-[ Speed.Kills.2018.COMPLETE.DVDR-JFKDVD ]-[ 3.79GB ]-[ 2019-01-23 18:19:36 ]
[ #14859232 ]-[ [DL] 35fc39d91eba3c1d3f8b9edd8566103f3bc192ac ]-[ Speed.Kills.2018.1080p.BluRay.x264-SADPANDA ]-[ 1kB ]-[ 2019-01-23 10:30:05 ]
[ #14812268 ]-[ [DL] 14cf21cc19ac85d205aba3b4e085e140ddc6e45a ]-[ Speed.Kills.2018.COMPLETE.DVDR-JFKDVD ]-[ 1kB ]-[ 2019-01-22 15:58:04 ]
[ #14768418 ]-[ [DL] 11e461ab2744b65c34f2db97bb075dbd4f41cb61 ]-[ Speed.Kills.2018.COMPLETE.DVDR-JFKDVD ]-[ 1kB ]-[ 2019-01-21 21:21:15 ]
[ #14734453 ]-[ [DL] d9ef7fc152727ab148607cd9f472d2501ddd8bff ]-[ hidratorrent.com - Speed.Kills_.2018.WEB-DL ]-[ 647kB ]-[ 2019-01-21 09:21:43 ]
[ #14722853 ]-[ [DL] 23057bf661fc7b8f9bc99b624ce9c5a1c73a5775 ]-[ Speed.Kills.2018.WEB-DL.XviD.AC3.avi ]-[ 1kB ]-[ 2019-01-21 03:40:05 ]
[ #14704536 ]-[ [DL] 918244e07aae54d90ef681d2d82bce911fcb5d44 ]-[ Speed.Kills.2018.1080p.BluRay.H264.AAC-RARBG ]-[ 1.97GB ]-[ 2019-01-20 20:01:57 ]
[ #14646683 ]-[ [DL] ea3e0021217874d633f926f5e83587225867649f ]-[ Speed.Kills.2018.1080p.BluRay.H264.AAC-RARBG ]-[ 1kB ]-[ 2019-01-19 22:09:05 ]
[ #14595332 ]-[ [DL] 979b4507ec7a118e9dd39b804db2dec89e0990b9 ]-[ 极速杀机.Speed.Kills.2018.BD-1080p.X264.AAC.CHS.ENG-99Mp4.mp4 ]-[ 1kB ]-[ 2019-01-19 01:27:03 ]
[ #14577830 ]-[ [DL] c98e797adfe96af16e4219aa8b21fff530a7fb40 ]-[ Speed.Kills.2018.1080p.Bluray.DD5.1.x264-HDH ]-[ 9.95GB ]-[ 2019-01-18 18:42:30 ]
[ #14521933 ]-[ [DL] bfbfd6714a3f86d8b67e44d82e3b4b73f9bf129e ]-[ Speed.Kills.2018.BDRip.x264-VoMiT[EtMovies] ]-[ 794.34MB ]-[ 2019-01-17 19:45:23 ]
[ #14476733 ]-[ [DL] 48d70865f21ab04db1e06f2f6952be01c84547ad ]-[ 极速杀机 Speed.Kills.2018.1080p.WEB-DL.DD5.1.H264-homefei ]-[ 2.27GB ]-[ 2019-01-16 23:43:21 ]
[ #14460844 ]-[ [DL] eac1901e7f67ff40431d2a60057227d02369c7b2 ]-[ Speed.Kills.2018.BDRip(AVC).OlLanDGroup.mkv ]-[ 1kB ]-[ 2019-01-16 17:54:03 ]
[ #14456252 ]-[ [DL] f3100c2877237736e542e32e036056b9357dc3af ]-[ Speed.Kills.2018.BDRipAVC.mkv ]-[ 1kB ]-[ 2019-01-16 16:07:03 ]
[ #14452202 ]-[ [DL] dd5a08685e795127bfd12e83d494bb54cdb4f5c8 ]-[ Speed.Kills.2018.BDRip.avi ]-[ 1kB ]-[ 2019-01-16 14:30:05 ]
[ #14426038 ]-[ [DL] d02ddffd7604332528b4df79b1ee7874596958ba ]-[ Speed.Kills.2018.iTALiAN.AC3.BRRip.XviD-T4P3.avi ]-[ 1kB ]-[ 2019-01-15 23:31:03 ]
[ #14424592 ]-[ [DL] f0f67015e577763fa89ff93586e999b8378c9819 ]-[ 极速杀机.Speed.Kills.2018.BD720P.AAC.x264.English.CHS.BTDX8 ]-[ 1.65GB ]-[ 2019-01-15 22:42:12 ]
[ #14422017 ]-[ [DL] 6b17653b9771f2ba12d45c72ff3e48104eb4fa72 ]-[ Speed.Kills.2018.720p.BluRay.x264.RoSubbed-LFHD ]-[ 4.36GB ]-[ 2019-01-15 21:31:59 ]
[ #14415466 ]-[ [DL] 04eebbd4a347445a9acf260f5b6a849a21cedf61 ]-[ Speed.Kills.2018.1080p.BluRay.REMUX.AVC.DTS-HD.MA5.1-FGT ]-[ 20.19GB ]-[ 2019-01-15 18:55:25 ]
[ #14313455 ]-[ [DL] c98e797adfe96af16e4219aa8b21fff530a7fb40 ]-[ Speed.Kills.2018.1080p.Bluray.DD5.1.x264-HDH ]-[ 1kB ]-[ 2019-01-13 17:31:03 ]
[ #14310524 ]-[ [DL] b6bf0af5419614e2575e472e36845b1634818565 ]-[ Speed.Kills.2018.HDRip.XviD.AC3-EVO[TGx] ]-[ 1.33GB ]-[ 2019-01-13 16:34:29 ]
[ #14306003 ]-[ [DL] b1f3614fb8b8e45edeea9898904315ed172020a2 ]-[ 极速杀机.Speed.Kills.2018.BD1080P.AAC.x264.English.CHS.BTDX8 ]-[ 1kB ]-[ 2019-01-13 15:04:04 ]
[ #14298386 ]-[ [DL] 2988b6dda4940315125c632ef76243cdb7174e53 ]-[ Speed.Kills.2018.720p.BluRay.x264-SADPANDA ]-[ 1kB ]-[ 2019-01-13 12:24:06 ]
[ #14264092 ]-[ [DL] 0ce54d2a9f518165b8aab397d28dadac1326973e ]-[ Speed.Kills.2018.1080p.BluRay.x264-SADPANDA ]-[ 1kB ]-[ 2019-01-12 21:41:03 ]
[ #14234920 ]-[ [DL] f754490e7024f22e6cd447aa1f61cf07af75780f ]-[ Speed.Kills.2018.1080p.WEB-DL.mkv ]-[ 1kB ]-[ 2019-01-12 13:05:05 ]
[ #14229759 ]-[ [DL] ead22c39881c579d57a66759564e1e93bbe7a502 ]-[ Speed.Kills.2018.1080p.WEB-DL.DD5.1.H264-FGT ]-[ 3.48GB ]-[ 2019-01-12 11:41:04 ]
[ #14227659 ]-[ [DL] 52cd6994248195d363d605b756b2600f206355eb ]-[ [极速杀机 Speed.Kills][BluRay-720P.MKV][2.1GB][中文字幕] ]-[ 1kB ]-[ 2019-01-12 10:59:06 ]
[ #14193261 ]-[ [DL] bc4e93a3d21bb1ee86b9bc95f7d3f73406e27249 ]-[ Speed.Kills.2018.720p.Bluray.DD5.1.x264-HDH ]-[ 1kB ]-[ 2019-01-11 20:01:04 ]
[ #14171172 ]-[ [DL] e8d823673242a99871ae86cb78ae55bc65b50af2 ]-[ Speed.Kills.2018.BRRip.XviD.AC3-EVO[TGx] ]-[ 1.37GB ]-[ 2019-01-11 12:54:08 ]
[ #14169492 ]-[ [DL] 65fe9979ec8fd03ebeec69c51353b7e5287c53d4 ]-[ Speed.Kills.2018.BRRip.XviD.AC3-EVO[EtMovies] ]-[ 1kB ]-[ 2019-01-11 12:21:03 ]
[ #14157076 ]-[ [DL] c82d739a304303e6626bd65c694379b4f146eccf ]-[ Speed.Kills.2018.720p.BluRay.x264 ]-[ 1kB ]-[ 2019-01-11 06:52:03 ]
[ #14133338 ]-[ [DL] a893d8f23e39d4a9a75c7d0c87ff936d83d60d47 ]-[ Speed.Kills.2018.1080p.BluRay.x264-SADPANDA ]-[ 1kB ]-[ 2019-01-10 19:49:03 ]
[ #14129582 ]-[ [DL] bcfa61ec2ee9fb5b831ffcee9221bdd892dd53e2 ]-[ Speed.Kills.2018.WEB-DL.AC3.X264-RMX ]-[ 1kB ]-[ 2019-01-10 18:39:04 ]
[ #14108105 ]-[ [DL] a23545cebb63017785ee9f3ecf2fe0484dd10789 ]-[ Speed.Kills.2018.1080p.10bit.BluRay.6CH.x265.HEVC-PSA ]-[ 1kB ]-[ 2019-01-10 11:56:03 ]
[ #14098235 ]-[ [DL] 32ec91d4135b87f80795bc659845c39b92779a98 ]-[ Speed.Kills.2018.REMUX.mkv ]-[ 1kB ]-[ 2019-01-10 08:15:04 ]
[ #14091800 ]-[ [DL] f6c864543cebfd0a5ebe4e099095d5962e56275f ]-[ Speed.Kills.2018.720p.BluRay.H264.AAC-RARBG ]-[ 1.25GB ]-[ 2019-01-10 04:35:32 ]
[ #14088714 ]-[ [DL] 46f800e9914df2945965cf4077300f2d82fc24f4 ]-[ Speed.Kills.2018.BDRip.x264.MaZiKa2daY.CoM.mkv ]-[ 1kB ]-[ 2019-01-10 02:55:03 ]
[ #14083299 ]-[ [DL] 03d04891c4c93f29f87b8c441d749842155e287a ]-[ Speed.Kills.2018.REMUX.mkv ]-[ 1kB ]-[ 2019-01-10 00:00:05 ]
[ #14072225 ]-[ [DL] db540dbae7f8bcb4801bbf8427d9784c869dea5f ]-[ 极速杀机.Speed.Kills.2018.BD720P.X264.AAC.English.CHS-ENG.Mp4Ba ]-[ 1kB ]-[ 2019-01-09 19:40:05 ]
[ #14049139 ]-[ [DL] 3bfb13d435fabc9b84821a99eebe9f8ce7790b74 ]-[ Speed.Kills.2018.1080p.Blu-ray.REMUX.AVC.DTS-HD.MA.5.1-UTT ]-[ 1kB ]-[ 2019-01-09 12:44:03 ]
[ #14043136 ]-[ [DL] cb5cb8ee3662b1d0bd4666de4644cf4b58061d96 ]-[ Speed.Kills.2018.WEBRip.x265-DiN ]-[ 714.75MB ]-[ 2019-01-09 10:27:20 ]
[ #14039475 ]-[ [DL] 0e51876de63a422a0657a97a2b0406cd0b02ec59 ]-[ Speed.Kills-HI2U ]-[ 1kB ]-[ 2019-01-09 09:04:03 ]
[ #14032207 ]-[ [DL] fcd5aa71f75dac45501ede6d7eae629c63c037d1 ]-[ Speed.Kills.2018.1080p.BluRay.x264.MaZiKa2daY.CoM.mkv ]-[ 1kB ]-[ 2019-01-09 05:08:03 ]
[ #13986574 ]-[ [DL] 7bd4cc81d1bd3c4e8ba3bfb1a2756761a453ee97 ]-[ Speed.Kills.2018.REPACK.NORDiC.1080p.BluRay.x264.DTS5.1-TWA ]-[ 7.64GB ]-[ 2019-01-08 10:53:10 ]
[ #13983691 ]-[ [DL] 102194f1038f39043e570f161b984b5d82611ba0 ]-[ Speed.Kills.2018.1080p.BluRay.REMUX.AVC.DTS-HD.MA.5.1-EPSiLON.mkv ]-[ 1kB ]-[ 2019-01-08 09:56:03 ]
[ #13981122 ]-[ [DL] c35dafcd9e1a8c73fb831cb62eb218f8d3074ed3 ]-[ Speed.Kills.2018.720p.10bit.BluRay.6CH.x265.HEVC-PSA ]-[ 1kB ]-[ 2019-01-08 08:58:03 ]
[ #13951768 ]-[ [DL] 6b17653b9771f2ba12d45c72ff3e48104eb4fa72 ]-[ Speed.Kills.2018.720p.BluRay.x264.RoSubbed-LFHD ]-[ 1kB ]-[ 2019-01-07 20:14:04 ]
[ #13862697 ]-[ [DL] 03ce930ce61eeb247e2e0cf1a01ca403590e3c8d ]-[ Speed.Kills.2018.720p.BluRay.x264.MaZiKa2daY.CoM.mkv ]-[ 1kB ]-[ 2019-01-06 13:38:03 ]
[ #13861715 ]-[ [DL] 0eebd68cb69beb8ba9d40fe3955a4aef96504a7f ]-[ Speed.Kills.2018.BRRip.XviD.AC3-EVO ]-[ 1kB ]-[ 2019-01-06 13:21:03 ]
[ #13838683 ]-[ [DL] 23d5377c054ffcacf46a1b197898cefbc13e0e9a ]-[ Speed.Kills.2018.REMUX.BluRay.1080p.AVC.DTS-HD.MA5.1-iFT.mkv ]-[ 1kB ]-[ 2019-01-06 04:53:02 ]
[ #13829154 ]-[ [DL] d2bbd8881b9f981c000f2343df6a9a5ca9853734 ]-[ Speed.Kills.2018.BDRip.AC3.X264-CMRG[EtMovies] ]-[ 2B ]-[ 2019-01-06 00:14:03 ]
[ #13829152 ]-[ [DL] 45569bdcdf973fc23a0099f2d83752f61cc1592e ]-[ Speed.Kills.2018.BDRip.AC3.X264-CMRG ]-[ 2B ]-[ 2019-01-06 00:14:03 ]
[ #13825593 ]-[ [DL] 6eca770ba2cc4195ddd7f4895e7ff8d8a4928799 ]-[ Speed.Kills.2018.1080p.BluRay.AVC.DTS-HD.MA.5.1-watchHD ]-[ 1kB ]-[ 2019-01-05 22:58:03 ]
[ #13825592 ]-[ [DL] 04eebbd4a347445a9acf260f5b6a849a21cedf61 ]-[ Speed.Kills.2018.1080p.BluRay.REMUX.AVC.DTS-HD.MA5.1-FGT ]-[ 1kB ]-[ 2019-01-05 22:58:03 ]
[ #13825591 ]-[ [DL] ba08e85912eb135031f16ccef096adfda7bff262 ]-[ Speed.Kills.2018.1080p.BluRay.x264.DTS-HD.MA.5.1-FGT ]-[ 1kB ]-[ 2019-01-05 22:58:03 ]
[ #13825157 ]-[ [DL] 918244e07aae54d90ef681d2d82bce911fcb5d44 ]-[ Speed.Kills.2018.1080p.BluRay.H264.AAC-RARBG ]-[ 1kB ]-[ 2019-01-05 22:48:05 ]
[ #13824724 ]-[ [DL] cbbf9babbf26dec8220095c25395fb3c17cd93ae ]-[ Speed.Kills.2018.1080p.BluRay.x264-SADPANDA[EtHD] ]-[ 2B ]-[ 2019-01-05 22:40:02 ]
[ #13824211 ]-[ [DL] d593639aa8881299cdbdd0c650ee092d7343b7d1 ]-[ Speed.Kills.2018.BDRip.x264-VoMiT ]-[ 2B ]-[ 2019-01-05 22:30:03 ]
[ #13824210 ]-[ [DL] bfbfd6714a3f86d8b67e44d82e3b4b73f9bf129e ]-[ Speed.Kills.2018.BDRip.x264-VoMiT[EtMovies] ]-[ 2B ]-[ 2019-01-05 22:30:03 ]
[ #13822250 ]-[ [DL] e8d823673242a99871ae86cb78ae55bc65b50af2 ]-[ Speed.Kills.2018.BRRip.XviD.AC3-EVO[TGx] ]-[ 2B ]-[ 2019-01-05 21:54:03 ]
[ #13821185 ]-[ [DL] f6c864543cebfd0a5ebe4e099095d5962e56275f ]-[ Speed.Kills.2018.720p.BluRay.H264.AAC-RARBG ]-[ 1kB ]-[ 2019-01-05 21:34:03 ]
[ #13821078 ]-[ [DL] 0ec40c24ac13e8359169ab36ca0dbe0b23f86e67 ]-[ Speed.Kills.2018.720p.BluRay.x264-SADPANDA[EtHD] ]-[ 2B ]-[ 2019-01-05 21:32:02 ]
[ #13821077 ]-[ [DL] debbe83e92fb7d50a3a2f791b3bc81be88ea2bbd ]-[ Speed.Kills.2018.BRRip.XviD.AC3-EVO ]-[ 2B ]-[ 2019-01-05 21:32:02 ]
[ #13821075 ]-[ [DL] 71b118538294c2dc46e362c49b4e07b53577c140 ]-[ Speed.Kills.2018.BRRip.XviD.AC3-EVO[EtMovies] ]-[ 2B ]-[ 2019-01-05 21:32:02 ]
[ #13820786 ]-[ [DL] 0416f220a7f221d5ed16cd4a932aa16cacc8a77d ]-[ Speed.Kills.2018.1080p.BluRay.x264-SADPANDA ]-[ 1kB ]-[ 2019-01-05 21:26:03 ]
[ #13820570 ]-[ [DL] 55c5ea2574f122c40547f3a1c9bea409b69c1d76 ]-[ Speed.Kills.2018.BDRip.x264-VoMiT ]-[ 1kB ]-[ 2019-01-05 21:22:03 ]

Next page -> #1